Ana Sayfa
METAR-TAF:

METAR-TAF

Havaalanları :

Westerly State Airport

Westerly, Rhode Island, Amerika Birleşik Devletleri

Enlem: 41-20-59N, Boylam: 071-47-56W, yükseklik: 24 m

Güncel hava durumu gözlemi

Rapor saat 04:53 UTC de 1 saat ve 11 dakika önce yapıldı.
Rüzgar kuzey/kuzeybatıdan 7 kt
Sıcaklık 28°C
Nem 70%
Basınç 1010 hPa
Görüş mesafesi: 16.1 km
Açık gökyüzü

METAR: KWST 220453Z AUTO 34007KT 10SM CLR 28/22 A2983 RMK AO2 SLP098 T02830222 403390250

Saat: 02:04 (06:04 UTC)


TAF: eksik

4.000'den fazla havaalanı için hava durumu gözlemleri ve tahminleri (METAR ve TAF raporları).

Kullanılabilir istasyonlar harita üzerinde sarı ve kırmızı noktalarla gösterilir.

İstasyonun adını görmek için fareyi noktanın üzerinde gezdirin.

Sonrasında hava gözlem ve tahminlerini görmek için tıklayın.

Haritayı değiştirmek için: yaklaştırmak için siyah artı işaretli yeşil düğmeye ve uzaklaştırmak için de eksi işaretli düğmeye hızla tıklayın; bitişik haritalar için yeşil okları kullanın.


METAR-TAF: